• Join FlightAware (Why Join?)
  • Login
  • US Flag 
04:33PM EST


 

Airport Tracker/Info


-or-


 

Live Flight TrackerFlight Track Log ✈ N7800 ✈ 02-May-2013 ✈ SC1 - KNUQ

Flight Track Log - Related Links

Times and Time Zones

All times are in EDT time to prevent confusion due to time zone crossing. See the N7800 flight status page for this flight to view local times or setup timezone preferences in your user account.

Time Position Orientation Groundspeed Altitude Reporting Facility
EDT Latitude Longitude Course Direction KTS MPH feet Rate Location/Type
10:21AM 34.2467 -118.6708 32° Northeast 152 175 8,600  Level Los Angeles Center
10:22AM 34.2811 -118.7153 313° West 178 205 8,600  Level Los Angeles Center
10:23AM 34.3292 -118.7597 323° Northwest 180 207 8,700 540 Climbing Los Angeles Center
10:24AM 34.3764 -118.7975 327° Northwest 171 197 9,800 900 Climbing Los Angeles Center
10:25AM -19.8852 -160.1678 126° Southeast  Level Estimated
10:25AM 34.4083 -118.8361 315° West 165 190 10,600  Level Los Angeles Center
10:26AM -19.8577 -160.1494 32° Northeast  Level Estimated
10:26AM 34.4450 -118.8758 318° Northwest 177 204 10,600  Level Los Angeles Center
10:27AM 34.4831 -118.9142 320° Northwest 177 204 10,700 -180 Climbing Los Angeles Center
10:28AM 34.5225 -118.9517 322° Northwest 182 209 10,300 -120 Descending Los Angeles Center
10:29AM 34.5611 -118.9917 320° Northwest 181 208 10,500 60 Climbing Los Angeles Center
10:30AM 34.6069 -119.0389 320° Northwest 179 206 10,500 60 Level Los Angeles Center
10:31AM 34.6442 -119.0772 320° Northwest 177 204 10,700 60 Climbing Los Angeles Center
10:32AM 34.6817 -119.1150 320° Northwest 177 204 10,700 -120 Level Los Angeles Center
10:33AM 34.7197 -119.1517 322° Northwest 176 203 10,500 -120 Descending Los Angeles Center
10:34AM 34.7558 -119.1892 320° Northwest 173 199 10,500  Level Los Angeles Center
10:35AM 34.7914 -119.2253 320° Northwest 170 196 10,500  Level Los Angeles Center
10:36AM 34.8350 -119.2708 319° Northwest 171 197 10,500  Level Los Angeles Center
10:37AM 34.8722 -119.3075 321° Northwest 173 199 10,500  Level Los Angeles Center
10:38AM 34.9081 -119.3456 319° Northwest 172 198 10,500  Level Los Angeles Center
10:39AM 34.9439 -119.3839 319° Northwest 171 197 10,500  Level Los Angeles Center
10:40AM 34.9814 -119.4225 320° Northwest 175 201 10,500  Level Los Angeles Center
10:42AM 35.0119 -119.4528 321° Northwest 177 204 10,500  Level Los Angeles Center
10:43AM 35.0636 -119.5078 319° Northwest 176 203 10,500  Level Los Angeles Center
10:44AM 35.1008 -119.5453 321° Northwest 174 200 10,500  Level Los Angeles Center
10:45AM 35.1442 -119.5906 319° Northwest 173 199 10,500  Level Los Angeles Center
10:46AM 35.1817 -119.6297 320° Northwest 176 203 10,500  Level Los Angeles Center
10:47AM 35.2172 -119.6664 320° Northwest 171 197 10,500  Level Los Angeles Center
10:48AM 35.2542 -119.7050 320° Northwest 172 198 10,500  Level Los Angeles Center
10:49AM 35.2992 -119.7508 320° Northwest 176 203 10,500  Level Los Angeles Center
10:50AM 35.3356 -119.7903 319° Northwest 176 203 10,500  Level Los Angeles Center
10:51AM 35.3731 -119.8297 319° Northwest 181 208 10,500  Level Los Angeles Center
10:52AM 35.4097 -119.8694 319° Northwest 176 203 10,500  Level Oakland Center
10:53AM 35.4453 -119.9053 321° Northwest 176 203 10,500  Level Oakland Center
10:54AM 35.4850 -119.9472 319° Northwest 178 205 10,500  Level Oakland Center
10:55AM 35.5233 -119.9872 320° Northwest 180 207 10,500  Level Oakland Center
10:56AM 35.5603 -120.0278 318° Northwest 181 208 10,500 -60 Level Oakland Center
10:57AM 35.5994 -120.0675 320° Northwest 182 209 10,400 -60 Descending Oakland Center
10:58AM 35.6453 -120.1167 319° Northwest 183 211 10,400  Level Oakland Center
10:59AM 35.6836 -120.1575 319° Northwest 184 212 10,400  Level Oakland Center
11:00AM 35.7219 -120.1972 320° Northwest 183 211 10,400  Level Oakland Center
11:01AM 35.7597 -120.2383 319° Northwest 183 211 10,400  Level Oakland Center
11:02AM 35.7978 -120.2781 320° Northwest 181 208 10,400  Level Oakland Center
11:03AM 35.8358 -120.3194 319° Northwest 185 213 10,400  Level Oakland Center
11:04AM 35.8756 -120.3603 320° Northwest 188 216 10,400  Level Oakland Center
11:05AM 35.9144 -120.4017 319° Northwest 189 217 10,400  Level Oakland Center
11:06AM 35.9622 -120.4525 319° Northwest 192 221 10,400  Level Oakland Center
11:07AM 36.0014 -120.4947 319° Northwest 191 220 10,400  Level Oakland Center
11:08AM 36.0408 -120.5369 319° Northwest 192 221 10,400  Level Oakland Center
11:09AM 36.0794 -120.5794 318° Northwest 191 220 10,400  Level Oakland Center
11:10AM 36.1189 -120.6214 319° Northwest 190 219 10,400  Level Oakland Center
11:11AM 36.1578 -120.6628 319° Northwest 189 217 10,400  Level Oakland Center
11:12AM 36.1972 -120.7047 319° Northwest 189 217 10,400  Level Oakland Center
11:13AM 36.2369 -120.7492 318° Northwest 195 224 10,400  Level Oakland Center
11:14AM 36.2836 -120.7964 321° Northwest 186 214 10,400  Level Oakland Center
11:15AM 36.3225 -120.8400 318° Northwest 192 221 10,400  Level Oakland Center
11:17AM 36.3619 -120.8814 320° Northwest 193 222 10,400  Level Oakland Center
11:18AM 36.4011 -120.9239 319° Northwest 193 222 10,400  Level Oakland Center
11:19AM 36.4400 -120.9667 318° Northwest 193 222 10,400  Level Oakland Center
11:20AM 36.4789 -121.0097 318° Northwest 192 221 10,400  Level Oakland Center
11:21AM 36.5189 -121.0519 320° Northwest 193 222 10,500  Climbing Oakland Center
11:22AM 36.5572 -121.0953 318° Northwest 192 221 10,500  Level Oakland Center
11:23AM 36.5964 -121.1372 319° Northwest 190 219 10,500  Level Oakland Center
11:24AM 36.6356 -121.1819 318° Northwest 194 223 10,500  Level Oakland Center
11:25AM 36.6833 -121.2308 321° Northwest 192 221 10,500  Level Oakland Center
11:26AM 36.7228 -121.2767 317° Northwest 196 226 10,500 -180 Level Oakland Center
11:27AM 36.7633 -121.3197 320° Northwest 196 226 10,200 -480 Descending Oakland Center
11:28AM 36.8072 -121.3661 320° Northwest 208 239 9,600 -600 Descending Oakland Center
11:29AM 36.8489 -121.4161 316° Northwest 204 235 9,000 -600 Descending Oakland Center
11:30AM 36.8822 -121.4725 306° West 202 232 8,400 -600 Descending Oakland Center
11:31AM 36.9153 -121.5286 306° West 202 232 7,800 -600 Descending Oakland Center
11:32AM 36.9478 -121.5856 306° West 203 234 7,200 -600 Descending Oakland Center
11:33AM 36.9783 -121.6414 304° West 198 228 6,600 -600 Descending Oakland Center
11:34AM 37.0275 -121.6678 337° Northwest 201 231 6,000 -660 Descending Oakland Center
11:36AM 37.1322 -121.7250 336° Northwest 189 217 4,700 -660 Descending Oakland Center
11:37AM 37.1697 -121.7714 315° West 188 216 4,100 -660 Descending Oakland Center
11:38AM 37.2086 -121.8183 316° Northwest 191 220 3,400 -660 Descending Oakland Center
11:39AM 37.2475 -121.8628 318° Northwest 191 220 2,800 -600 Descending Oakland Center
11:40AM 37.2881 -121.9061 320° Northwest 191 220 2,200 -540 Descending Oakland Center
11:41AM 37.3142 -121.9589 302° West 184 212 1,700 -540 Descending Oakland Center
11:42AM 37.3411 -122.0139 302° West 185 213 1,100 -600 Descending Oakland Center
11:43AM 37.3833 -122.0333 340° North 123 142 700 -600 Descending Northern Cal TRACON
11:45AM 37.4000 -122.0333 322° Northwest  Level FlightAware Approximate
11:52AM 37.4161 -122.0491 322° Northwest  Level Estimated